PAEN/ENA METAR and TAF weather

Enter ICAO airport designator
Station Type Date Time Source
PAEN METAR 2022/12/08 12:53 UTC NOAA

PAEN 081253Z AUTO 00000KT 10SM CLR M18/M21 A2949 RMK AO2 SLP990 T11831206 TSNO


Station Type Date Time Source
PAEN Decoded METAR 2022/12/08 12:53 UTC NOAA

KENAI MUNICIPAL AIRPORT, AK, United States (PAEN) 60-35N 151-14W 25M
Dec 08, 2022 - 07:53 AM EST / 2022.12.08 1253 UTC
Wind: Calm:0
Visibility: 10 mile(s):0
Sky conditions: clear
Temperature: -0.9 F (-18.3 C)
Dew Point: -5.1 F (-20.6 C)
Relative Humidity: 82%
Pressure (altimeter): 29.49 in. Hg (998 hPa)
ob: PAEN 081253Z AUTO 00000KT 10SM CLR M18/M21 A2949 RMK AO2 SLP990 T11831206 TSNO
cycle: 13

Station Type Date Time Source
PAEN TAF 2022/12/08 12:22 UTC NOAA

TAF PAEN 081120Z 0812/0912 VRB06KT P6SM SCT090
FM082000 02005KT P6SM SKC

Example: see airport list